createdAt,value
2023-02-22T00:01:37.930Z,1.84
2023-02-22T00:04:07.103Z,1.73
2023-02-22T00:06:34.645Z,1.68
2023-02-22T00:09:04.794Z,1.96
2023-02-22T00:11:32.196Z,1.73
2023-02-22T00:13:59.603Z,1.63
2023-02-22T00:16:27.732Z,1.88
2023-02-22T00:18:55.546Z,1.70
2023-02-22T00:21:23.146Z,1.41
2023-02-22T00:23:50.722Z,1.25
2023-02-22T00:26:20.057Z,1.32
2023-02-22T00:28:50.092Z,1.20
2023-02-22T00:31:18.128Z,1.10
2023-02-22T00:33:45.847Z,1.09
2023-02-22T00:36:14.349Z,1.07
2023-02-22T00:38:42.317Z,1.00
2023-02-22T00:41:10.372Z,1.10
2023-02-22T00:43:37.726Z,1.09
2023-02-22T00:46:05.296Z,1.02
2023-02-22T00:48:32.737Z,0.81
2023-02-22T00:51:00.260Z,0.69
2023-02-22T00:53:27.616Z,0.62
2023-02-22T00:55:55.092Z,0.63
2023-02-22T00:58:24.279Z,0.88
2023-02-22T01:00:51.744Z,0.77
2023-02-22T01:03:20.587Z,0.72
2023-02-22T01:05:48.563Z,0.72
2023-02-22T01:08:17.075Z,0.71
2023-02-22T01:10:44.871Z,0.70
2023-02-22T01:13:12.843Z,0.68
2023-02-22T01:15:42.346Z,0.68
2023-02-22T01:18:10.187Z,0.80
2023-02-22T01:20:37.848Z,0.72
2023-02-22T01:23:07.742Z,0.70
2023-02-22T01:25:36.225Z,0.66
2023-02-22T01:28:05.732Z,0.76
2023-02-22T01:30:36.110Z,0.74
2023-02-22T01:33:06.503Z,0.70
2023-02-22T01:35:37.443Z,0.74
2023-02-22T01:38:04.645Z,0.76
2023-02-22T01:40:36.691Z,0.89
2023-02-22T01:43:18.998Z,0.98
2023-02-22T01:45:55.079Z,0.95
2023-02-22T01:48:56.749Z,1.01
2023-02-22T01:51:45.821Z,0.83
2023-02-22T01:54:28.511Z,0.58
2023-02-22T01:57:24.775Z,0.47
2023-02-22T01:59:56.800Z,0.46
2023-02-22T02:02:25.178Z,0.52
2023-02-22T02:04:56.508Z,0.57
2023-02-22T02:07:24.804Z,0.52
2023-02-22T02:10:03.546Z,0.55
2023-02-22T02:12:34.465Z,0.93
2023-02-22T02:15:29.652Z,0.72
2023-02-22T02:18:06.305Z,0.61
2023-02-22T02:21:16.600Z,0.76
2023-02-22T02:24:20.724Z,0.84
2023-02-22T02:27:23.096Z,1.11
2023-02-22T02:30:18.293Z,0.79
2023-02-22T02:33:13.020Z,0.62
2023-02-22T02:36:03.358Z,0.84
2023-02-22T02:38:47.309Z,0.70
2023-02-22T02:41:39.823Z,0.56
2023-02-22T02:44:22.487Z,0.60
2023-02-22T02:47:08.030Z,0.47
2023-02-22T02:49:51.709Z,0.29
2023-02-22T02:52:21.119Z,0.33
2023-02-22T02:54:49.392Z,0.15
2023-02-22T02:57:16.761Z,0.11
2023-02-22T02:59:43.877Z,0.08
2023-02-22T03:02:55.825Z,0.08
2023-02-22T03:05:48.091Z,0.11
2023-02-22T03:08:40.953Z,0.16
2023-02-22T03:11:17.429Z,0.34
2023-02-22T03:14:12.118Z,0.34
2023-02-22T03:17:18.556Z,0.42
2023-02-22T03:19:52.833Z,0.34
2023-02-22T03:23:08.084Z,0.36
2023-02-22T03:25:43.649Z,0.46
2023-02-22T03:28:14.816Z,0.41
2023-02-22T03:30:49.279Z,0.36
2023-02-22T03:33:33.850Z,0.39
2023-02-22T03:36:14.529Z,0.35
2023-02-22T03:38:43.088Z,0.31
2023-02-22T03:41:18.020Z,0.16
2023-02-22T03:43:51.062Z,0.19
2023-02-22T03:46:21.784Z,0.25
2023-02-22T03:49:00.331Z,0.28
2023-02-22T03:51:31.898Z,0.39
2023-02-22T03:54:01.310Z,0.42
2023-02-22T03:56:47.103Z,0.52
2023-02-22T03:59:14.740Z,0.60
2023-02-22T04:01:42.109Z,0.61
2023-02-22T04:04:09.098Z,0.63
2023-02-22T04:06:37.998Z,0.46
2023-02-22T04:09:05.277Z,0.36
2023-02-22T04:11:32.668Z,0.43
2023-02-22T04:14:00.785Z,0.26
2023-02-22T04:16:28.311Z,0.28
2023-02-22T04:18:55.580Z,0.31
2023-02-22T04:21:23.349Z,0.16
2023-02-22T04:23:51.199Z,0.29
2023-02-22T04:26:18.626Z,0.30
2023-02-22T04:28:51.166Z,0.34
2023-02-22T04:31:19.983Z,0.23
2023-02-22T04:33:47.553Z,0.30
2023-02-22T04:36:18.309Z,0.26
2023-02-22T04:38:46.066Z,0.21
2023-02-22T04:41:13.964Z,0.32
2023-02-22T04:43:41.915Z,0.14
2023-02-22T04:46:16.078Z,-0.04
2023-02-22T04:48:43.476Z,-0.05
2023-02-22T04:51:10.584Z,-0.15
2023-02-22T04:53:41.813Z,-0.13
2023-02-22T04:56:08.958Z,-0.17
2023-02-22T04:58:35.946Z,-0.13
2023-02-22T05:01:03.223Z,-0.24
2023-02-22T05:03:30.505Z,-0.18
2023-02-22T05:05:57.567Z,-0.05
2023-02-22T05:08:24.520Z,-0.11
2023-02-22T05:10:51.495Z,-0.11
2023-02-22T05:13:18.417Z,0.10
2023-02-22T05:15:45.545Z,0.08
2023-02-22T05:18:12.643Z,0.05
2023-02-22T05:20:39.640Z,-0.03
2023-02-22T05:23:06.636Z,-0.07
2023-02-22T05:25:34.098Z,-0.15
2023-02-22T05:28:05.516Z,-0.23
2023-02-22T05:30:36.134Z,-0.22
2023-02-22T05:33:03.144Z,-0.12
2023-02-22T05:35:30.593Z,-0.13
2023-02-22T05:37:59.729Z,-0.15
2023-02-22T05:40:27.863Z,-0.12
2023-02-22T05:42:55.159Z,0.03
2023-02-22T05:45:26.414Z,0.10
2023-02-22T05:47:55.049Z,0.16
2023-02-22T05:50:22.449Z,-0.07
2023-02-22T05:52:49.717Z,-0.03
2023-02-22T05:55:20.318Z,-0.09
2023-02-22T05:57:47.511Z,-0.02
2023-02-22T06:00:28.162Z,-0.02
2023-02-22T06:03:01.676Z,-0.06
2023-02-22T06:05:29.617Z,-0.12
2023-02-22T06:07:58.247Z,-0.14
2023-02-22T06:10:26.983Z,0.06
2023-02-22T06:12:55.192Z,-0.01
2023-02-22T06:15:24.771Z,0.03
2023-02-22T06:17:52.920Z,-0.02
2023-02-22T06:20:23.234Z,-0.01
2023-02-22T06:22:52.140Z,0.18
2023-02-22T06:25:24.083Z,0.10
2023-02-22T06:27:51.556Z,-0.03
2023-02-22T06:30:22.287Z,0.04
2023-02-22T06:32:49.871Z,0.18
2023-02-22T06:35:17.566Z,0.49
2023-02-22T06:37:45.238Z,0.47
2023-02-22T06:40:13.194Z,0.57
2023-02-22T06:42:40.928Z,0.78
2023-02-22T06:45:09.396Z,0.85
2023-02-22T06:47:43.564Z,0.72
2023-02-22T06:50:30.322Z,0.91
2023-02-22T06:52:58.611Z,0.56
2023-02-22T06:55:29.490Z,0.67
2023-02-22T06:57:56.778Z,0.85
2023-02-22T07:00:26.098Z,1.12
2023-02-22T07:02:54.352Z,0.96
2023-02-22T07:05:23.226Z,1.01
2023-02-22T07:07:54.260Z,1.02
2023-02-22T07:10:28.827Z,0.91
2023-02-22T07:12:55.927Z,0.96
2023-02-22T07:15:26.028Z,1.08
2023-02-22T07:17:53.788Z,1.10
2023-02-22T07:20:22.719Z,1.10
2023-02-22T07:22:50.159Z,1.47
2023-02-22T07:25:17.501Z,1.54
2023-02-22T07:27:44.731Z,1.68
2023-02-22T07:30:34.177Z,1.94
2023-02-22T07:33:07.157Z,2.35
2023-02-22T07:35:48.864Z,3.10
2023-02-22T07:38:18.191Z,3.21
2023-02-22T07:40:45.738Z,4.06
2023-02-22T07:43:31.104Z,5.07
2023-02-22T07:46:02.857Z,5.62
2023-02-22T07:48:32.056Z,6.35
2023-02-22T07:50:59.687Z,6.34
2023-02-22T07:53:30.354Z,6.54
2023-02-22T07:55:58.564Z,7.64
2023-02-22T07:58:28.520Z,8.20
2023-02-22T08:00:56.111Z,8.16
2023-02-22T08:03:26.028Z,8.35
2023-02-22T08:05:55.919Z,8.29
2023-02-22T08:08:23.658Z,8.54
2023-02-22T08:10:52.058Z,8.41
2023-02-22T08:13:19.905Z,8.71
2023-02-22T08:15:49.478Z,8.72
2023-02-22T08:18:19.680Z,8.85
2023-02-22T08:20:49.111Z,8.93
2023-02-22T08:23:18.360Z,9.84
2023-02-22T08:25:45.526Z,10.07
2023-02-22T08:28:17.556Z,10.25
2023-02-22T08:30:44.578Z,10.39
2023-02-22T08:33:15.945Z,9.59
2023-02-22T08:35:43.224Z,9.29
2023-02-22T08:38:20.438Z,8.65
2023-02-22T08:40:48.923Z,8.64
2023-02-22T08:43:16.715Z,8.34
2023-02-22T08:45:45.763Z,7.90
2023-02-22T08:48:14.191Z,8.86
2023-02-22T08:50:41.991Z,9.20
2023-02-22T08:53:11.527Z,8.97
2023-02-22T08:55:39.870Z,9.98
2023-02-22T08:58:10.517Z,11.05
2023-02-22T09:00:39.538Z,11.98
2023-02-22T09:03:10.451Z,12.43
2023-02-22T09:05:37.817Z,13.17
2023-02-22T09:08:05.216Z,13.15
2023-02-22T09:10:34.461Z,13.59
2023-02-22T09:13:04.279Z,13.77
2023-02-22T09:15:34.050Z,14.68
2023-02-22T09:18:01.152Z,14.37
2023-02-22T09:20:29.240Z,14.70
2023-02-22T09:22:56.646Z,14.59
2023-02-22T09:25:24.016Z,15.14
2023-02-22T09:27:55.652Z,15.39
2023-02-22T09:30:32.244Z,16.21
2023-02-22T09:33:09.948Z,16.54
2023-02-22T09:35:42.229Z,16.31
2023-02-22T09:38:11.434Z,16.44
2023-02-22T09:40:46.238Z,17.46
2023-02-22T09:43:21.974Z,17.66
2023-02-22T09:46:21.113Z,17.88
2023-02-22T09:49:18.004Z,17.77
2023-02-22T09:52:18.789Z,18.16
2023-02-22T09:54:58.104Z,18.49
2023-02-22T09:57:35.784Z,18.38
2023-02-22T10:00:23.451Z,17.47
2023-02-22T10:03:25.259Z,17.28
2023-02-22T10:06:10.632Z,17.40
2023-02-22T10:08:38.859Z,17.01
2023-02-22T10:11:23.510Z,17.04
2023-02-22T10:14:36.601Z,17.15
2023-02-22T10:17:22.342Z,17.61
2023-02-22T10:20:07.163Z,17.60
2023-02-22T10:22:39.698Z,17.68
2023-02-22T10:25:18.044Z,16.61
2023-02-22T10:28:03.995Z,17.26
2023-02-22T10:30:41.859Z,16.90
2023-02-22T10:33:22.707Z,17.41
2023-02-22T10:35:53.650Z,17.58
2023-02-22T10:38:32.736Z,17.71
2023-02-22T10:41:24.094Z,16.56
2023-02-22T10:43:51.114Z,17.16
2023-02-22T10:46:22.538Z,17.58
2023-02-22T10:48:54.569Z,17.82
2023-02-22T10:51:21.935Z,18.98
2023-02-22T10:54:13.692Z,19.46
2023-02-22T10:56:58.025Z,19.61
2023-02-22T10:59:35.765Z,19.33
2023-02-22T11:02:27.568Z,19.70
2023-02-22T11:04:58.715Z,19.78
2023-02-22T11:07:30.970Z,19.85
2023-02-22T11:10:02.175Z,19.86
2023-02-22T11:12:34.191Z,20.14
2023-02-22T11:15:29.001Z,20.71
2023-02-22T11:17:57.788Z,20.88
2023-02-22T11:20:38.391Z,21.24
2023-02-22T11:23:08.326Z,21.17
2023-02-22T11:25:39.721Z,20.64
2023-02-22T11:28:32.901Z,19.55
2023-02-22T11:31:15.620Z,19.05
2023-02-22T11:36:43.105Z,19.35
2023-02-22T11:39:27.026Z,19.09
2023-02-22T11:41:56.715Z,18.95
2023-02-22T11:44:32.403Z,18.92
2023-02-22T11:47:06.870Z,18.91
2023-02-22T11:49:39.732Z,19.78
2023-02-22T11:52:34.721Z,19.66
2023-02-22T11:55:09.772Z,19.97
2023-02-22T11:57:52.324Z,19.58
2023-02-22T12:00:26.098Z,19.08
2023-02-22T12:03:14.761Z,18.46
2023-02-22T12:06:32.076Z,18.14
2023-02-22T12:09:27.000Z,18.08
2023-02-22T12:12:43.726Z,18.34
2023-02-22T12:15:34.799Z,19.01
2023-02-22T12:18:23.213Z,19.54
2023-02-22T12:21:06.082Z,19.64
2023-02-22T12:24:02.525Z,19.81
2023-02-22T12:26:43.394Z,19.57
2023-02-22T12:29:27.635Z,19.52
2023-02-22T12:32:38.105Z,18.74
2023-02-22T12:35:21.344Z,18.09
2023-02-22T12:38:14.955Z,17.85
2023-02-22T12:41:08.878Z,17.75
2023-02-22T12:43:41.247Z,17.52
2023-02-22T12:46:24.078Z,17.29
2023-02-22T12:49:39.485Z,16.71
2023-02-22T12:52:41.981Z,16.54
2023-02-22T12:55:31.690Z,16.43
2023-02-22T12:58:46.727Z,16.27
2023-02-22T13:01:22.154Z,16.14
2023-02-22T13:03:49.324Z,16.09
2023-02-22T13:06:57.140Z,16.04
2023-02-22T13:10:12.771Z,16.01
2023-02-22T13:13:27.815Z,16.12
2023-02-22T13:16:21.817Z,16.19
2023-02-22T13:19:04.551Z,15.91
2023-02-22T13:21:58.211Z,15.96
2023-02-22T13:24:30.326Z,16.01
2023-02-22T13:27:08.820Z,16.25
2023-02-22T13:29:44.901Z,16.34
2023-02-22T13:33:03.286Z,16.47
2023-02-22T13:35:41.991Z,16.29
2023-02-22T13:38:43.413Z,16.27
2023-02-22T13:41:41.348Z,16.78
2023-02-22T13:44:45.142Z,18.23
2023-02-22T13:47:46.299Z,18.76
2023-02-22T13:50:52.410Z,19.05
2023-02-22T13:53:30.432Z,18.96
2023-02-22T13:56:00.809Z,19.17
2023-02-22T13:58:27.996Z,18.77
2023-02-22T14:00:58.314Z,18.56
2023-02-22T14:03:36.340Z,17.64
2023-02-22T14:06:06.976Z,17.28
2023-02-22T14:08:33.840Z,17.08
2023-02-22T14:11:07.281Z,17.05
2023-02-22T14:13:53.757Z,17.03
2023-02-22T14:16:27.664Z,16.83
2023-02-22T14:19:13.333Z,16.78
2023-02-22T14:22:03.732Z,16.79
2023-02-22T14:24:47.765Z,16.83
2023-02-22T14:27:17.558Z,16.94
2023-02-22T14:29:55.196Z,17.11
2023-02-22T14:32:32.644Z,17.22
2023-02-22T14:35:17.199Z,17.17
2023-02-22T14:37:59.215Z,17.02
2023-02-22T14:40:33.295Z,16.81
2023-02-22T14:43:19.999Z,16.62
2023-02-22T14:45:53.584Z,16.43
2023-02-22T14:48:39.290Z,16.39
2023-02-22T14:51:26.515Z,16.10
2023-02-22T14:54:03.908Z,16.01
2023-02-22T14:56:44.290Z,15.91
2023-02-22T14:59:20.700Z,15.80
2023-02-22T15:02:01.535Z,15.69
2023-02-22T15:04:31.448Z,15.59
2023-02-22T15:07:00.874Z,15.46
2023-02-22T15:09:37.293Z,15.32
2023-02-22T15:12:04.086Z,15.26
2023-02-22T15:14:37.723Z,15.20
2023-02-22T15:17:16.222Z,15.19
2023-02-22T15:19:43.229Z,15.13
2023-02-22T15:22:26.964Z,15.04
2023-02-22T15:25:01.351Z,15.02
2023-02-22T15:27:29.130Z,14.82
2023-02-22T15:30:04.486Z,14.64
2023-02-22T15:32:53.257Z,14.33
2023-02-22T15:35:31.061Z,14.26
2023-02-22T15:38:03.989Z,14.08
2023-02-22T15:40:33.243Z,13.94
2023-02-22T15:43:04.316Z,14.02
2023-02-22T15:45:34.655Z,14.06
2023-02-22T15:48:03.189Z,13.93
2023-02-22T15:50:35.027Z,13.75
2023-02-22T15:53:02.008Z,13.84
2023-02-22T15:55:38.819Z,13.60
2023-02-22T15:58:14.539Z,13.62
2023-02-22T16:01:05.745Z,13.44
2023-02-22T16:03:44.992Z,13.32
2023-02-22T16:06:35.268Z,13.19
2023-02-22T16:09:26.003Z,13.07
2023-02-22T16:12:21.829Z,12.91
2023-02-22T16:14:50.013Z,12.97
2023-02-22T16:17:46.869Z,12.89
2023-02-22T16:20:24.818Z,12.89
2023-02-22T16:22:51.787Z,12.86
2023-02-22T16:25:18.693Z,12.82
2023-02-22T16:27:52.672Z,12.76
2023-02-22T16:30:28.888Z,12.73
2023-02-22T16:32:57.388Z,12.53
2023-02-22T16:35:29.421Z,12.32
2023-02-22T16:38:16.643Z,12.28
2023-02-22T16:40:50.535Z,12.14
2023-02-22T16:43:23.915Z,12.01
2023-02-22T16:45:52.827Z,11.87
2023-02-22T16:48:25.239Z,11.78
2023-02-22T16:50:54.485Z,11.50
2023-02-22T16:53:24.461Z,11.20
2023-02-22T16:55:57.920Z,11.11
2023-02-22T16:58:29.287Z,11.12
2023-02-22T17:00:57.481Z,10.92
2023-02-22T17:03:25.880Z,10.78
2023-02-22T17:05:53.710Z,10.68
2023-02-22T17:08:21.255Z,10.79
2023-02-22T17:10:51.514Z,10.80
2023-02-22T17:13:26.628Z,10.89
2023-02-22T17:15:54.991Z,10.82
2023-02-22T17:18:23.807Z,10.73
2023-02-22T17:20:52.645Z,10.46
2023-02-22T17:23:20.511Z,10.24
2023-02-22T17:25:55.236Z,10.24
2023-02-22T17:28:24.409Z,10.15
2023-02-22T17:30:53.090Z,10.07
2023-02-22T17:33:26.691Z,10.21
2023-02-22T17:35:56.316Z,10.30
2023-02-22T17:38:23.819Z,10.22
2023-02-22T17:40:57.308Z,10.03
2023-02-22T17:43:26.079Z,9.81
2023-02-22T17:45:53.859Z,9.50
2023-02-22T17:48:23.912Z,9.06
2023-02-22T17:50:52.256Z,9.14
2023-02-22T17:53:22.769Z,9.05
2023-02-22T17:55:50.503Z,9.04
2023-02-22T17:58:18.496Z,9.04
2023-02-22T18:00:48.099Z,9.02
2023-02-22T18:03:25.436Z,9.03
2023-02-22T18:05:56.332Z,8.97
2023-02-22T18:08:25.401Z,8.96
2023-02-22T18:10:56.377Z,8.87
2023-02-22T18:13:26.366Z,8.86
2023-02-22T18:15:53.837Z,8.84
2023-02-22T18:18:22.148Z,8.83
2023-02-22T18:20:51.442Z,8.82
2023-02-22T18:23:22.216Z,8.79
2023-02-22T18:26:09.094Z,8.76
2023-02-22T18:28:37.491Z,8.77
2023-02-22T18:31:09.508Z,8.76
2023-02-22T18:33:37.160Z,8.79
2023-02-22T18:36:05.025Z,8.89
2023-02-22T18:38:32.498Z,8.83
2023-02-22T18:41:05.329Z,8.72
2023-02-22T18:43:35.303Z,8.60
2023-02-22T18:46:13.918Z,8.45
2023-02-22T18:48:41.703Z,8.64
2023-02-22T18:51:11.479Z,8.59
2023-02-22T18:53:40.950Z,8.43
2023-02-22T18:56:10.848Z,8.52
2023-02-22T18:58:38.952Z,8.38
2023-02-22T19:01:12.146Z,8.09
2023-02-22T19:03:39.597Z,7.87
2023-02-22T19:06:11.417Z,7.74
2023-02-22T19:08:40.622Z,7.79
2023-02-22T19:11:10.425Z,7.88
2023-02-22T19:13:38.421Z,7.89
2023-02-22T19:16:07.456Z,7.88
2023-02-22T19:18:34.947Z,7.94
2023-02-22T19:21:03.724Z,8.02
2023-02-22T19:23:34.466Z,7.82
2023-02-22T19:26:03.868Z,7.62
2023-02-22T19:28:34.379Z,7.38
2023-02-22T19:31:18.582Z,7.15
2023-02-22T19:33:47.823Z,7.18
2023-02-22T19:36:16.204Z,7.28
2023-02-22T19:38:43.920Z,7.33
2023-02-22T19:41:15.433Z,7.26
2023-02-22T19:43:43.524Z,7.24
2023-02-22T19:46:11.736Z,7.21
2023-02-22T19:48:39.380Z,7.23
2023-02-22T19:51:11.805Z,7.25
2023-02-22T19:53:40.968Z,7.33
2023-02-22T19:56:13.043Z,7.24
2023-02-22T19:58:41.384Z,7.25
2023-02-22T20:01:15.812Z,7.29
2023-02-22T20:03:43.659Z,7.21
2023-02-22T20:06:11.963Z,7.24
2023-02-22T20:08:42.151Z,7.39
2023-02-22T20:11:10.505Z,7.36
2023-02-22T20:13:41.692Z,7.32
2023-02-22T20:16:10.071Z,7.30
2023-02-22T20:18:37.710Z,7.28
2023-02-22T20:21:13.931Z,7.46
2023-02-22T20:23:44.206Z,7.57
2023-02-22T20:26:20.570Z,7.20
2023-02-22T20:28:48.100Z,6.82
2023-02-22T20:31:16.658Z,6.78
2023-02-22T20:33:48.898Z,6.93
2023-02-22T20:36:17.943Z,6.88
2023-02-22T20:38:45.969Z,6.98
2023-02-22T20:41:16.508Z,6.94
2023-02-22T20:43:44.249Z,7.08
2023-02-22T20:46:11.704Z,7.18
2023-02-22T20:48:39.069Z,7.36
2023-02-22T20:51:11.138Z,7.40
2023-02-22T20:53:44.739Z,7.56
2023-02-22T20:56:23.150Z,7.46
2023-02-22T20:58:50.966Z,7.20
2023-02-22T21:01:20.090Z,7.04
2023-02-22T21:03:48.114Z,7.23
2023-02-22T21:06:17.732Z,7.15
2023-02-22T21:08:46.198Z,7.24
2023-02-22T21:11:15.345Z,7.27
2023-02-22T21:13:43.220Z,7.00
2023-02-22T21:16:17.204Z,6.86
2023-02-22T21:18:44.568Z,6.78
2023-02-22T21:21:12.581Z,6.83
2023-02-22T21:23:42.909Z,6.82
2023-02-22T21:26:17.624Z,6.82
2023-02-22T21:28:51.401Z,6.85
2023-02-22T21:31:20.290Z,6.89
2023-02-22T21:33:50.629Z,6.81
2023-02-22T21:36:19.022Z,6.61
2023-02-22T21:38:53.228Z,6.58
2023-02-22T21:41:23.520Z,6.57
2023-02-22T21:43:51.650Z,6.55
2023-02-22T21:46:19.676Z,6.56
2023-02-22T21:48:50.315Z,6.48
2023-02-22T21:51:21.321Z,6.42
2023-02-22T21:53:52.106Z,6.64
2023-02-22T21:56:24.263Z,6.84
2023-02-22T21:58:59.099Z,6.54
2023-02-22T22:01:28.465Z,6.29
2023-02-22T22:03:59.442Z,6.22
2023-02-22T22:06:28.213Z,6.09
2023-02-22T22:08:55.843Z,6.06
2023-02-22T22:11:25.020Z,6.00
2023-02-22T22:13:57.321Z,5.97
2023-02-22T22:16:27.115Z,6.03
2023-02-22T22:18:55.525Z,6.01
2023-02-22T22:21:24.175Z,6.01
2023-02-22T22:23:55.901Z,5.97
2023-02-22T22:26:24.683Z,5.97
2023-02-22T22:28:56.035Z,6.06
2023-02-22T22:31:25.965Z,5.95
2023-02-22T22:33:54.511Z,5.88
2023-02-22T22:36:22.877Z,5.83
2023-02-22T22:38:52.554Z,5.69
2023-02-22T22:41:21.985Z,5.63
2023-02-22T22:43:49.342Z,5.56
2023-02-22T22:46:17.930Z,5.83
2023-02-22T22:48:47.248Z,5.66
2023-02-22T22:51:19.973Z,5.55
2023-02-22T22:53:48.989Z,5.50
2023-02-22T22:56:25.929Z,5.47
2023-02-22T22:58:55.588Z,5.50
2023-02-22T23:01:32.564Z,5.68
2023-02-22T23:04:02.400Z,5.83
2023-02-22T23:06:32.969Z,5.75
2023-02-22T23:09:15.274Z,5.63
2023-02-22T23:11:50.583Z,5.46
2023-02-22T23:14:24.031Z,5.41
2023-02-22T23:16:53.365Z,5.52
2023-02-22T23:19:20.726Z,5.56
2023-02-22T23:21:49.923Z,5.48
2023-02-22T23:24:19.658Z,5.48
2023-02-22T23:26:50.357Z,5.55
2023-02-22T23:29:19.381Z,5.62
2023-02-22T23:31:48.432Z,5.66
2023-02-22T23:34:18.377Z,5.74
2023-02-22T23:36:46.693Z,5.75
2023-02-22T23:39:15.727Z,6.03
2023-02-22T23:41:43.059Z,6.06
2023-02-22T23:44:17.441Z,5.96
2023-02-22T23:46:48.451Z,6.04
2023-02-22T23:49:20.646Z,6.13
2023-02-22T23:51:48.789Z,6.00
2023-02-22T23:54:19.501Z,6.01
2023-02-22T23:56:56.158Z,6.09
2023-02-22T23:59:25.194Z,6.24
